sensor_id;sensor_type;location;lat;lon;timestamp;P1;durP1;ratioP1;P2;durP2;ratioP2
8964;SDS011;4517;49.020;12.066;2023-06-10T00:01:51;21.03;;;19.43;;
8964;SDS011;4517;49.020;12.066;2023-06-10T00:04:20;21.83;;;19.97;;
8964;SDS011;4517;49.020;12.066;2023-06-10T00:06:46;20.97;;;19.07;;
8964;SDS011;4517;49.020;12.066;2023-06-10T00:09:13;19.47;;;17.97;;
8964;SDS011;4517;49.020;12.066;2023-06-10T00:11:39;21.40;;;19.60;;
8964;SDS011;4517;49.020;12.066;2023-06-10T00:14:05;21.17;;;19.43;;
8964;SDS011;4517;49.020;12.066;2023-06-10T00:16:31;21.30;;;19.60;;
8964;SDS011;4517;49.020;12.066;2023-06-10T00:18:58;22.00;;;20.10;;
8964;SDS011;4517;49.020;12.066;2023-06-10T00:21:28;20.73;;;19.03;;
8964;SDS011;4517;49.020;12.066;2023-06-10T00:23:55;19.70;;;18.20;;
8964;SDS011;4517;49.020;12.066;2023-06-10T00:26:21;20.63;;;19.13;;
8964;SDS011;4517;49.020;12.066;2023-06-10T00:28:48;21.07;;;19.43;;
8964;SDS011;4517;49.020;12.066;2023-06-10T00:31:13;22.10;;;20.00;;
8964;SDS011;4517;49.020;12.066;2023-06-10T00:33:39;22.43;;;20.43;;
8964;SDS011;4517;49.020;12.066;2023-06-10T00:36:05;22.67;;;20.57;;
8964;SDS011;4517;49.020;12.066;2023-06-10T00:38:30;21.60;;;19.83;;
8964;SDS011;4517;49.020;12.066;2023-06-10T00:40:56;22.47;;;20.47;;
8964;SDS011;4517;49.020;12.066;2023-06-10T00:43:22;21.57;;;19.87;;
8964;SDS011;4517;49.020;12.066;2023-06-10T00:45:47;22.60;;;20.70;;
8964;SDS011;4517;49.020;12.066;2023-06-10T00:48:14;22.10;;;20.10;;
8964;SDS011;4517;49.020;12.066;2023-06-10T00:50:39;21.80;;;19.70;;
8964;SDS011;4517;49.020;12.066;2023-06-10T00:53:05;20.37;;;18.73;;
8964;SDS011;4517;49.020;12.066;2023-06-10T00:55:31;21.13;;;19.33;;
8964;SDS011;4517;49.020;12.066;2023-06-10T00:57:57;21.03;;;19.00;;
8964;SDS011;4517;49.020;12.066;2023-06-10T01:00:23;20.67;;;18.87;;
8964;SDS011;4517;49.020;12.066;2023-06-10T01:02:49;21.13;;;18.93;;
8964;SDS011;4517;49.020;12.066;2023-06-10T01:05:17;21.60;;;19.60;;
8964;SDS011;4517;49.020;12.066;2023-06-10T01:07:47;21.60;;;19.73;;
8964;SDS011;4517;49.020;12.066;2023-06-10T01:10:41;21.77;;;19.90;;
8964;SDS011;4517;49.020;12.066;2023-06-10T01:13:10;21.07;;;19.33;;
8964;SDS011;4517;49.020;12.066;2023-06-10T01:15:37;20.67;;;18.93;;
8964;SDS011;4517;49.020;12.066;2023-06-10T01:18:04;20.33;;;18.73;;
8964;SDS011;4517;49.020;12.066;2023-06-10T01:20:34;21.40;;;19.47;;
8964;SDS011;4517;49.020;12.066;2023-06-10T01:23:05;21.77;;;19.77;;
8964;SDS011;4517;49.020;12.066;2023-06-10T01:25:31;21.87;;;19.90;;
8964;SDS011;4517;49.020;12.066;2023-06-10T01:28:12;20.57;;;18.87;;
8964;SDS011;4517;49.020;12.066;2023-06-10T01:33:18;21.23;;;19.57;;
8964;SDS011;4517;49.020;12.066;2023-06-10T01:35:52;21.50;;;19.70;;
8964;SDS011;4517;49.020;12.066;2023-06-10T01:38:19;21.43;;;19.60;;
8964;SDS011;4517;49.020;12.066;2023-06-10T01:40:45;21.50;;;19.60;;
8964;SDS011;4517;49.020;12.066;2023-06-10T01:43:13;21.63;;;19.77;;
8964;SDS011;4517;49.020;12.066;2023-06-10T01:45:38;21.50;;;19.70;;
8964;SDS011;4517;49.020;12.066;2023-06-10T01:48:04;19.23;;;17.73;;
8964;SDS011;4517;49.020;12.066;2023-06-10T01:50:30;20.20;;;18.50;;
8964;SDS011;4517;49.020;12.066;2023-06-10T01:52:56;19.70;;;18.30;;
8964;SDS011;4517;49.020;12.066;2023-06-10T01:55:22;20.10;;;18.40;;
8964;SDS011;4517;49.020;12.066;2023-06-10T01:57:48;20.83;;;18.77;;
8964;SDS011;4517;49.020;12.066;2023-06-10T02:00:14;19.53;;;18.03;;
8964;SDS011;4517;49.020;12.066;2023-06-10T02:02:40;20.60;;;18.70;;
8964;SDS011;4517;49.020;12.066;2023-06-10T02:05:06;21.47;;;19.57;;
8964;SDS011;4517;49.020;12.066;2023-06-10T02:07:31;20.83;;;19.13;;
8964;SDS011;4517;49.020;12.066;2023-06-10T02:09:57;20.57;;;18.80;;
8964;SDS011;4517;49.020;12.066;2023-06-10T02:12:22;21.77;;;19.97;;
8964;SDS011;4517;49.020;12.066;2023-06-10T02:14:48;19.80;;;18.20;;
8964;SDS011;4517;49.020;12.066;2023-06-10T02:17:13;20.17;;;18.47;;
8964;SDS011;4517;49.020;12.066;2023-06-10T02:19:39;20.43;;;18.70;;
8964;SDS011;4517;49.020;12.066;2023-06-10T02:22:07;20.37;;;18.77;;
8964;SDS011;4517;49.020;12.066;2023-06-10T02:24:33;21.03;;;19.23;;
8964;SDS011;4517;49.020;12.066;2023-06-10T02:27:02;21.30;;;19.47;;
8964;SDS011;4517;49.020;12.066;2023-06-10T02:29:28;20.63;;;18.87;;
8964;SDS011;4517;49.020;12.066;2023-06-10T02:31:54;20.20;;;18.60;;
8964;SDS011;4517;49.020;12.066;2023-06-10T02:34:19;21.50;;;19.80;;
8964;SDS011;4517;49.020;12.066;2023-06-10T02:36:45;22.47;;;20.27;;
8964;SDS011;4517;49.020;12.066;2023-06-10T02:39:14;21.87;;;20.00;;
8964;SDS011;4517;49.020;12.066;2023-06-10T02:41:39;22.03;;;20.10;;
8964;SDS011;4517;49.020;12.066;2023-06-10T02:44:05;22.87;;;20.87;;
8964;SDS011;4517;49.020;12.066;2023-06-10T02:46:30;23.17;;;21.23;;
8964;SDS011;4517;49.020;12.066;2023-06-10T02:48:56;22.90;;;20.80;;
8964;SDS011;4517;49.020;12.066;2023-06-10T02:51:22;21.80;;;19.80;;
8964;SDS011;4517;49.020;12.066;2023-06-10T02:53:47;22.13;;;19.93;;
8964;SDS011;4517;49.020;12.066;2023-06-10T02:56:15;20.40;;;18.57;;
8964;SDS011;4517;49.020;12.066;2023-06-10T02:58:41;21.17;;;19.43;;
8964;SDS011;4517;49.020;12.066;2023-06-10T03:01:07;21.67;;;19.83;;
8964;SDS011;4517;49.020;12.066;2023-06-10T03:03:34;21.63;;;19.53;;
8964;SDS011;4517;49.020;12.066;2023-06-10T03:06:01;21.10;;;19.30;;
8964;SDS011;4517;49.020;12.066;2023-06-10T03:08:27;20.93;;;18.83;;
8964;SDS011;4517;49.020;12.066;2023-06-10T03:10:53;20.70;;;18.77;;
8964;SDS011;4517;49.020;12.066;2023-06-10T03:13:19;21.30;;;19.27;;
8964;SDS011;4517;49.020;12.066;2023-06-10T03:15:44;20.43;;;18.63;;
8964;SDS011;4517;49.020;12.066;2023-06-10T03:18:11;20.80;;;19.00;;
8964;SDS011;4517;49.020;12.066;2023-06-10T03:20:36;22.77;;;20.63;;
8964;SDS011;4517;49.020;12.066;2023-06-10T03:23:03;24.37;;;22.00;;
8964;SDS011;4517;49.020;12.066;2023-06-10T03:25:31;22.50;;;20.47;;
8964;SDS011;4517;49.020;12.066;2023-06-10T03:27:56;23.00;;;20.73;;
8964;SDS011;4517;49.020;12.066;2023-06-10T03:30:22;22.53;;;20.53;;
8964;SDS011;4517;49.020;12.066;2023-06-10T03:32:47;21.20;;;19.10;;
8964;SDS011;4517;49.020;12.066;2023-06-10T03:35:14;22.80;;;20.70;;
8964;SDS011;4517;49.020;12.066;2023-06-10T03:37:39;21.60;;;19.70;;
8964;SDS011;4517;49.020;12.066;2023-06-10T03:40:05;21.13;;;19.23;;
8964;SDS011;4517;49.020;12.066;2023-06-10T03:42:33;21.70;;;19.60;;
8964;SDS011;4517;49.020;12.066;2023-06-10T03:45:00;20.13;;;18.53;;
8964;SDS011;4517;49.020;12.066;2023-06-10T03:47:25;20.70;;;18.80;;
8964;SDS011;4517;49.020;12.066;2023-06-10T03:49:51;21.77;;;19.97;;
8964;SDS011;4517;49.020;12.066;2023-06-10T03:52:17;21.83;;;19.73;;
8964;SDS011;4517;49.020;12.066;2023-06-10T03:54:43;20.73;;;18.93;;
8964;SDS011;4517;49.020;12.066;2023-06-10T03:57:09;21.83;;;19.83;;
8964;SDS011;4517;49.020;12.066;2023-06-10T03:59:34;22.37;;;20.43;;
8964;SDS011;4517;49.020;12.066;2023-06-10T04:02:00;21.27;;;19.27;;
8964;SDS011;4517;49.020;12.066;2023-06-10T04:04:26;20.67;;;18.93;;
8964;SDS011;4517;49.020;12.066;2023-06-10T04:06:52;21.67;;;19.87;;
8964;SDS011;4517;49.020;12.066;2023-06-10T04:09:17;21.40;;;19.47;;
8964;SDS011;4517;49.020;12.066;2023-06-10T04:11:43;21.67;;;19.80;;
8964;SDS011;4517;49.020;12.066;2023-06-10T04:14:08;22.37;;;20.57;;
8964;SDS011;4517;49.020;12.066;2023-06-10T04:16:34;22.47;;;20.30;;
8964;SDS011;4517;49.020;12.066;2023-06-10T04:19:00;22.30;;;20.40;;
8964;SDS011;4517;49.020;12.066;2023-06-10T04:21:26;21.80;;;20.00;;
8964;SDS011;4517;49.020;12.066;2023-06-10T04:23:52;22.40;;;20.47;;
8964;SDS011;4517;49.020;12.066;2023-06-10T04:26:18;21.03;;;19.33;;
8964;SDS011;4517;49.020;12.066;2023-06-10T04:28:43;22.47;;;20.20;;
8964;SDS011;4517;49.020;12.066;2023-06-10T04:31:09;20.80;;;19.07;;
8964;SDS011;4517;49.020;12.066;2023-06-10T04:33:35;21.23;;;19.43;;
8964;SDS011;4517;49.020;12.066;2023-06-10T04:36:01;22.10;;;20.10;;
8964;SDS011;4517;49.020;12.066;2023-06-10T04:38:26;22.07;;;20.17;;
8964;SDS011;4517;49.020;12.066;2023-06-10T04:40:52;20.90;;;19.30;;
8964;SDS011;4517;49.020;12.066;2023-06-10T04:43:18;21.77;;;20.07;;
8964;SDS011;4517;49.020;12.066;2023-06-10T04:45:43;21.33;;;19.50;;
8964;SDS011;4517;49.020;12.066;2023-06-10T04:48:12;22.70;;;20.90;;
8964;SDS011;4517;49.020;12.066;2023-06-10T04:50:38;22.10;;;20.17;;
8964;SDS011;4517;49.020;12.066;2023-06-10T04:53:04;22.30;;;20.60;;
8964;SDS011;4517;49.020;12.066;2023-06-10T04:55:31;20.53;;;18.83;;
8964;SDS011;4517;49.020;12.066;2023-06-10T04:57:56;21.00;;;19.40;;
8964;SDS011;4517;49.020;12.066;2023-06-10T05:00:22;22.37;;;20.67;;
8964;SDS011;4517;49.020;12.066;2023-06-10T05:02:48;22.13;;;20.30;;
8964;SDS011;4517;49.020;12.066;2023-06-10T05:05:15;22.00;;;20.20;;
8964;SDS011;4517;49.020;12.066;2023-06-10T05:07:41;22.23;;;20.30;;
8964;SDS011;4517;49.020;12.066;2023-06-10T05:10:07;21.87;;;19.97;;
8964;SDS011;4517;49.020;12.066;2023-06-10T05:12:33;20.67;;;19.07;;
8964;SDS011;4517;49.020;12.066;2023-06-10T05:14:58;21.60;;;19.80;;
8964;SDS011;4517;49.020;12.066;2023-06-10T05:17:24;21.13;;;19.43;;
8964;SDS011;4517;49.020;12.066;2023-06-10T05:19:50;21.53;;;19.83;;
8964;SDS011;4517;49.020;12.066;2023-06-10T05:22:16;25.30;;;20.73;;
8964;SDS011;4517;49.020;12.066;2023-06-10T05:24:43;21.70;;;20.00;;
8964;SDS011;4517;49.020;12.066;2023-06-10T05:27:09;21.00;;;19.30;;
8964;SDS011;4517;49.020;12.066;2023-06-10T05:29:35;20.83;;;19.13;;
8964;SDS011;4517;49.020;12.066;2023-06-10T05:32:00;20.20;;;18.67;;
8964;SDS011;4517;49.020;12.066;2023-06-10T05:34:28;20.83;;;18.93;;
8964;SDS011;4517;49.020;12.066;2023-06-10T05:36:54;19.50;;;18.00;;
8964;SDS011;4517;49.020;12.066;2023-06-10T05:39:20;19.60;;;18.10;;
8964;SDS011;4517;49.020;12.066;2023-06-10T05:41:45;20.53;;;18.57;;
8964;SDS011;4517;49.020;12.066;2023-06-10T05:44:11;19.93;;;18.17;;
8964;SDS011;4517;49.020;12.066;2023-06-10T05:46:37;19.97;;;18.37;;
8964;SDS011;4517;49.020;12.066;2023-06-10T05:49:02;20.50;;;18.90;;
8964;SDS011;4517;49.020;12.066;2023-06-10T05:51:28;22.27;;;20.50;;
8964;SDS011;4517;49.020;12.066;2023-06-10T05:53:54;22.77;;;21.00;;
8964;SDS011;4517;49.020;12.066;2023-06-10T05:56:19;20.27;;;18.57;;
8964;SDS011;4517;49.020;12.066;2023-06-10T05:58:47;21.63;;;19.90;;
8964;SDS011;4517;49.020;12.066;2023-06-10T06:01:13;21.17;;;19.57;;
8964;SDS011;4517;49.020;12.066;2023-06-10T06:03:38;21.33;;;19.70;;
8964;SDS011;4517;49.020;12.066;2023-06-10T06:06:04;21.70;;;20.00;;
8964;SDS011;4517;49.020;12.066;2023-06-10T06:08:30;20.10;;;18.60;;
8964;SDS011;4517;49.020;12.066;2023-06-10T06:10:56;21.27;;;19.67;;
8964;SDS011;4517;49.020;12.066;2023-06-10T06:13:22;23.07;;;21.03;;
8964;SDS011;4517;49.020;12.066;2023-06-10T06:15:47;20.73;;;19.13;;
8964;SDS011;4517;49.020;12.066;2023-06-10T06:18:13;19.70;;;18.20;;
8964;SDS011;4517;49.020;12.066;2023-06-10T06:20:40;21.50;;;19.63;;
8964;SDS011;4517;49.020;12.066;2023-06-10T06:23:05;21.17;;;19.47;;
8964;SDS011;4517;49.020;12.066;2023-06-10T06:25:33;20.80;;;19.23;;
8964;SDS011;4517;49.020;12.066;2023-06-10T06:28:00;19.70;;;18.27;;
8964;SDS011;4517;49.020;12.066;2023-06-10T06:30:26;21.00;;;19.27;;
8964;SDS011;4517;49.020;12.066;2023-06-10T06:32:52;21.57;;;19.80;;
8964;SDS011;4517;49.020;12.066;2023-06-10T06:35:17;20.87;;;19.07;;
8964;SDS011;4517;49.020;12.066;2023-06-10T06:37:43;20.43;;;18.90;;
8964;SDS011;4517;49.020;12.066;2023-06-10T06:40:09;21.53;;;19.83;;
8964;SDS011;4517;49.020;12.066;2023-06-10T06:42:35;20.37;;;18.87;;
8964;SDS011;4517;49.020;12.066;2023-06-10T06:45:00;20.93;;;19.43;;
8964;SDS011;4517;49.020;12.066;2023-06-10T06:47:26;21.60;;;19.90;;
8964;SDS011;4517;49.020;12.066;2023-06-10T06:49:52;20.67;;;19.07;;
8964;SDS011;4517;49.020;12.066;2023-06-10T06:52:17;21.07;;;19.37;;
8964;SDS011;4517;49.020;12.066;2023-06-10T06:54:44;21.23;;;19.73;;
8964;SDS011;4517;49.020;12.066;2023-06-10T06:57:09;21.30;;;19.60;;
8964;SDS011;4517;49.020;12.066;2023-06-10T06:59:35;21.40;;;19.70;;
8964;SDS011;4517;49.020;12.066;2023-06-10T07:02:01;21.17;;;19.57;;
8964;SDS011;4517;49.020;12.066;2023-06-10T07:04:27;20.77;;;18.80;;
8964;SDS011;4517;49.020;12.066;2023-06-10T07:06:53;20.63;;;19.03;;
8964;SDS011;4517;49.020;12.066;2023-06-10T07:09:19;21.50;;;19.90;;
8964;SDS011;4517;49.020;12.066;2023-06-10T07:11:45;19.80;;;18.40;;
8964;SDS011;4517;49.020;12.066;2023-06-10T07:14:10;21.43;;;19.83;;
8964;SDS011;4517;49.020;12.066;2023-06-10T07:16:36;20.93;;;19.33;;
8964;SDS011;4517;49.020;12.066;2023-06-10T07:19:01;21.63;;;19.83;;
8964;SDS011;4517;49.020;12.066;2023-06-10T07:21:27;21.53;;;19.83;;
8964;SDS011;4517;49.020;12.066;2023-06-10T07:23:54;20.67;;;19.07;;
8964;SDS011;4517;49.020;12.066;2023-06-10T07:26:23;20.27;;;18.43;;
8964;SDS011;4517;49.020;12.066;2023-06-10T07:28:49;20.03;;;18.53;;
8964;SDS011;4517;49.020;12.066;2023-06-10T07:31:14;19.77;;;18.37;;
8964;SDS011;4517;49.020;12.066;2023-06-10T07:33:40;21.37;;;19.67;;
8964;SDS011;4517;49.020;12.066;2023-06-10T07:36:06;20.60;;;19.10;;
8964;SDS011;4517;49.020;12.066;2023-06-10T07:38:32;21.27;;;19.53;;
8964;SDS011;4517;49.020;12.066;2023-06-10T07:40:58;20.70;;;19.10;;
8964;SDS011;4517;49.020;12.066;2023-06-10T07:43:24;20.63;;;18.97;;
8964;SDS011;4517;49.020;12.066;2023-06-10T07:45:50;21.10;;;19.40;;
8964;SDS011;4517;49.020;12.066;2023-06-10T07:48:16;20.97;;;19.20;;
8964;SDS011;4517;49.020;12.066;2023-06-10T07:50:41;21.57;;;19.87;;
8964;SDS011;4517;49.020;12.066;2023-06-10T07:53:07;20.30;;;18.60;;
8964;SDS011;4517;49.020;12.066;2023-06-10T07:55:32;21.03;;;19.33;;
8964;SDS011;4517;49.020;12.066;2023-06-10T07:57:58;20.80;;;19.30;;
8964;SDS011;4517;49.020;12.066;2023-06-10T08:00:23;20.90;;;19.30;;
8964;SDS011;4517;49.020;12.066;2023-06-10T08:02:49;20.57;;;18.97;;
8964;SDS011;4517;49.020;12.066;2023-06-10T08:05:15;19.53;;;17.97;;
8964;SDS011;4517;49.020;12.066;2023-06-10T08:07:42;19.43;;;17.87;;
8964;SDS011;4517;49.020;12.066;2023-06-10T08:10:08;20.47;;;18.60;;
8964;SDS011;4517;49.020;12.066;2023-06-10T08:12:34;20.17;;;18.57;;
8964;SDS011;4517;49.020;12.066;2023-06-10T08:15:00;20.20;;;18.53;;
8964;SDS011;4517;49.020;12.066;2023-06-10T08:17:26;19.10;;;17.50;;
8964;SDS011;4517;49.020;12.066;2023-06-10T08:19:52;21.73;;;19.63;;
8964;SDS011;4517;49.020;12.066;2023-06-10T08:22:18;19.20;;;17.77;;
8964;SDS011;4517;49.020;12.066;2023-06-10T08:24:43;19.43;;;17.83;;
8964;SDS011;4517;49.020;12.066;2023-06-10T08:27:09;20.50;;;18.90;;
8964;SDS011;4517;49.020;12.066;2023-06-10T08:29:35;19.90;;;18.40;;
8964;SDS011;4517;49.020;12.066;2023-06-10T08:32:01;19.87;;;18.40;;
8964;SDS011;4517;49.020;12.066;2023-06-10T08:34:27;19.17;;;17.87;;
8964;SDS011;4517;49.020;12.066;2023-06-10T08:36:52;18.60;;;17.30;;
8964;SDS011;4517;49.020;12.066;2023-06-10T08:39:20;18.77;;;17.37;;
8964;SDS011;4517;49.020;12.066;2023-06-10T08:42:09;22.40;;;20.80;;
8964;SDS011;4517;49.020;12.066;2023-06-10T08:44:40;20.00;;;18.50;;
8964;SDS011;4517;49.020;12.066;2023-06-10T08:47:13;19.50;;;18.03;;
8964;SDS011;4517;49.020;12.066;2023-06-10T08:49:41;20.00;;;18.50;;
8964;SDS011;4517;49.020;12.066;2023-06-10T08:52:14;19.57;;;18.27;;
8964;SDS011;4517;49.020;12.066;2023-06-10T08:55:03;19.37;;;17.77;;
8964;SDS011;4517;49.020;12.066;2023-06-10T08:57:29;20.00;;;18.43;;
8964;SDS011;4517;49.020;12.066;2023-06-10T08:59:56;20.30;;;18.70;;
8964;SDS011;4517;49.020;12.066;2023-06-10T09:02:22;20.03;;;18.60;;
8964;SDS011;4517;49.020;12.066;2023-06-10T09:04:49;19.87;;;18.33;;
8964;SDS011;4517;49.020;12.066;2023-06-10T09:07:16;20.13;;;18.63;;
8964;SDS011;4517;49.020;12.066;2023-06-10T09:09:45;19.57;;;18.17;;
8964;SDS011;4517;49.020;12.066;2023-06-10T09:12:11;19.90;;;18.43;;
8964;SDS011;4517;49.020;12.066;2023-06-10T09:14:37;20.50;;;18.90;;
8964;SDS011;4517;49.020;12.066;2023-06-10T09:17:03;20.53;;;19.00;;
8964;SDS011;4517;49.020;12.066;2023-06-10T09:19:30;21.33;;;19.43;;
8964;SDS011;4517;49.020;12.066;2023-06-10T09:21:56;20.47;;;18.77;;
8964;SDS011;4517;49.020;12.066;2023-06-10T09:24:22;20.70;;;19.10;;
8964;SDS011;4517;49.020;12.066;2023-06-10T09:26:48;20.17;;;18.57;;
8964;SDS011;4517;49.020;12.066;2023-06-10T09:29:15;21.33;;;19.47;;
8964;SDS011;4517;49.020;12.066;2023-06-10T09:31:41;20.23;;;18.83;;
8964;SDS011;4517;49.020;12.066;2023-06-10T09:34:09;20.13;;;18.63;;
8964;SDS011;4517;49.020;12.066;2023-06-10T09:36:37;21.47;;;19.53;;
8964;SDS011;4517;49.020;12.066;2023-06-10T09:39:03;20.37;;;18.77;;
8964;SDS011;4517;49.020;12.066;2023-06-10T09:41:33;19.77;;;18.37;;
8964;SDS011;4517;49.020;12.066;2023-06-10T09:44:00;19.83;;;18.30;;
8964;SDS011;4517;49.020;12.066;2023-06-10T09:46:25;20.27;;;18.77;;
8964;SDS011;4517;49.020;12.066;2023-06-10T09:48:59;20.53;;;19.03;;
8964;SDS011;4517;49.020;12.066;2023-06-10T09:51:25;20.27;;;18.70;;
8964;SDS011;4517;49.020;12.066;2023-06-10T09:53:51;20.63;;;19.13;;
8964;SDS011;4517;49.020;12.066;2023-06-10T09:56:16;20.70;;;19.20;;
8964;SDS011;4517;49.020;12.066;2023-06-10T09:58:42;20.90;;;19.30;;
8964;SDS011;4517;49.020;12.066;2023-06-10T10:01:11;19.90;;;18.47;;
8964;SDS011;4517;49.020;12.066;2023-06-10T10:03:49;19.53;;;17.67;;
8964;SDS011;4517;49.020;12.066;2023-06-10T10:06:16;19.73;;;18.33;;
8964;SDS011;4517;49.020;12.066;2023-06-10T10:08:43;19.40;;;18.00;;
8964;SDS011;4517;49.020;12.066;2023-06-10T10:11:12;20.03;;;18.50;;
8964;SDS011;4517;49.020;12.066;2023-06-10T10:13:41;20.60;;;19.10;;
8964;SDS011;4517;49.020;12.066;2023-06-10T10:16:11;18.80;;;17.43;;
8964;SDS011;4517;49.020;12.066;2023-06-10T10:18:41;18.60;;;17.13;;
8964;SDS011;4517;49.020;12.066;2023-06-10T10:21:16;19.77;;;18.17;;
8964;SDS011;4517;49.020;12.066;2023-06-10T10:24:03;19.50;;;18.10;;
8964;SDS011;4517;49.020;12.066;2023-06-10T10:26:34;20.23;;;18.73;;
8964;SDS011;4517;49.020;12.066;2023-06-10T10:32:09;20.70;;;19.20;;
8964;SDS011;4517;49.020;12.066;2023-06-10T10:34:43;21.73;;;20.13;;
8964;SDS011;4517;49.020;12.066;2023-06-10T10:37:17;20.70;;;19.17;;
8964;SDS011;4517;49.020;12.066;2023-06-10T10:39:44;19.50;;;18.00;;
8964;SDS011;4517;49.020;12.066;2023-06-10T10:42:10;21.50;;;19.90;;
8964;SDS011;4517;49.020;12.066;2023-06-10T10:44:37;21.43;;;19.63;;
8964;SDS011;4517;49.020;12.066;2023-06-10T10:47:03;20.77;;;19.10;;
8964;SDS011;4517;49.020;12.066;2023-06-10T10:49:32;20.37;;;18.70;;
8964;SDS011;4517;49.020;12.066;2023-06-10T10:52:00;19.80;;;18.40;;
8964;SDS011;4517;49.020;12.066;2023-06-10T10:57:11;20.97;;;19.37;;
8964;SDS011;4517;49.020;12.066;2023-06-10T10:59:51;20.80;;;19.20;;
8964;SDS011;4517;49.020;12.066;2023-06-10T11:05:20;19.80;;;18.30;;
8964;SDS011;4517;49.020;12.066;2023-06-10T11:08:00;20.43;;;18.90;;
8964;SDS011;4517;49.020;12.066;2023-06-10T11:11:17;22.00;;;20.30;;
8964;SDS011;4517;49.020;12.066;2023-06-10T11:13:19;21.27;;;19.40;;
8964;SDS011;4517;49.020;12.066;2023-06-10T11:15:47;21.67;;;19.97;;
8964;SDS011;4517;49.020;12.066;2023-06-10T11:23:47;22.57;;;20.57;;
8964;SDS011;4517;49.020;12.066;2023-06-10T11:28:36;21.70;;;20.10;;
8964;SDS011;4517;49.020;12.066;2023-06-10T11:31:01;21.00;;;19.40;;
8964;SDS011;4517;49.020;12.066;2023-06-10T11:33:27;22.37;;;20.60;;
8964;SDS011;4517;49.020;12.066;2023-06-10T11:35:53;21.70;;;20.10;;
8964;SDS011;4517;49.020;12.066;2023-06-10T11:38:19;22.17;;;20.47;;
8964;SDS011;4517;49.020;12.066;2023-06-10T11:40:51;22.90;;;21.13;;
8964;SDS011;4517;49.020;12.066;2023-06-10T11:43:17;22.43;;;20.83;;
8964;SDS011;4517;49.020;12.066;2023-06-10T11:45:43;21.80;;;20.00;;
8964;SDS011;4517;49.020;12.066;2023-06-10T11:48:09;22.47;;;20.77;;
8964;SDS011;4517;49.020;12.066;2023-06-10T11:50:35;23.40;;;21.50;;
8964;SDS011;4517;49.020;12.066;2023-06-10T11:53:01;22.30;;;20.50;;
8964;SDS011;4517;49.020;12.066;2023-06-10T11:58:12;21.43;;;19.83;;
8964;SDS011;4517;49.020;12.066;2023-06-10T12:00:56;21.30;;;19.63;;
8964;SDS011;4517;49.020;12.066;2023-06-10T12:03:23;21.00;;;19.50;;
8964;SDS011;4517;49.020;12.066;2023-06-10T12:05:59;20.70;;;19.30;;
8964;SDS011;4517;49.020;12.066;2023-06-10T12:08:26;22.30;;;20.60;;
8964;SDS011;4517;49.020;12.066;2023-06-10T12:10:52;23.00;;;20.73;;
8964;SDS011;4517;49.020;12.066;2023-06-10T12:13:18;22.40;;;20.60;;
8964;SDS011;4517;49.020;12.066;2023-06-10T12:15:44;22.27;;;20.57;;
8964;SDS011;4517;49.020;12.066;2023-06-10T12:18:20;22.33;;;20.67;;
8964;SDS011;4517;49.020;12.066;2023-06-10T12:20:49;21.67;;;20.00;;
8964;SDS011;4517;49.020;12.066;2023-06-10T12:23:16;21.27;;;19.67;;
8964;SDS011;4517;49.020;12.066;2023-06-10T12:25:52;21.43;;;19.83;;
8964;SDS011;4517;49.020;12.066;2023-06-10T12:28:22;21.13;;;19.63;;
8964;SDS011;4517;49.020;12.066;2023-06-10T12:30:49;25.17;;;23.37;;
8964;SDS011;4517;49.020;12.066;2023-06-10T12:33:15;20.10;;;18.60;;
8964;SDS011;4517;49.020;12.066;2023-06-10T12:35:48;20.83;;;19.43;;
8964;SDS011;4517;49.020;12.066;2023-06-10T12:38:14;20.40;;;19.00;;
8964;SDS011;4517;49.020;12.066;2023-06-10T12:40:46;20.87;;;19.20;;
8964;SDS011;4517;49.020;12.066;2023-06-10T12:43:12;21.60;;;20.00;;
8964;SDS011;4517;49.020;12.066;2023-06-10T12:45:38;21.00;;;19.50;;
8964;SDS011;4517;49.020;12.066;2023-06-10T12:48:09;20.87;;;19.40;;
8964;SDS011;4517;49.020;12.066;2023-06-10T12:50:37;21.70;;;20.10;;
8964;SDS011;4517;49.020;12.066;2023-06-10T12:53:06;21.53;;;19.97;;
8964;SDS011;4517;49.020;12.066;2023-06-10T12:55:33;21.60;;;20.00;;
8964;SDS011;4517;49.020;12.066;2023-06-10T12:58:00;20.70;;;19.10;;
8964;SDS011;4517;49.020;12.066;2023-06-10T13:00:26;20.13;;;18.63;;
8964;SDS011;4517;49.020;12.066;2023-06-10T13:02:54;20.73;;;19.33;;
8964;SDS011;4517;49.020;12.066;2023-06-10T13:05:21;20.90;;;19.40;;
8964;SDS011;4517;49.020;12.066;2023-06-10T13:07:46;20.53;;;19.03;;
8964;SDS011;4517;49.020;12.066;2023-06-10T13:10:13;20.50;;;19.00;;
8964;SDS011;4517;49.020;12.066;2023-06-10T13:12:39;21.43;;;19.90;;
8964;SDS011;4517;49.020;12.066;2023-06-10T13:15:05;21.70;;;19.67;;
8964;SDS011;4517;49.020;12.066;2023-06-10T13:17:31;20.53;;;19.13;;
8964;SDS011;4517;49.020;12.066;2023-06-10T13:19:59;21.27;;;19.77;;
8964;SDS011;4517;49.020;12.066;2023-06-10T13:22:25;21.27;;;19.67;;
8964;SDS011;4517;49.020;12.066;2023-06-10T13:24:51;20.93;;;19.43;;
8964;SDS011;4517;49.020;12.066;2023-06-10T13:27:17;20.70;;;19.20;;
8964;SDS011;4517;49.020;12.066;2023-06-10T13:29:42;19.33;;;18.00;;
8964;SDS011;4517;49.020;12.066;2023-06-10T13:32:11;20.10;;;18.70;;
8964;SDS011;4517;49.020;12.066;2023-06-10T13:34:37;20.37;;;18.80;;
8964;SDS011;4517;49.020;12.066;2023-06-10T13:37:02;20.70;;;18.97;;
8964;SDS011;4517;49.020;12.066;2023-06-10T13:39:29;20.90;;;19.20;;
8964;SDS011;4517;49.020;12.066;2023-06-10T13:41:55;19.60;;;18.10;;
8964;SDS011;4517;49.020;12.066;2023-06-10T13:44:20;19.53;;;17.93;;
8964;SDS011;4517;49.020;12.066;2023-06-10T13:46:46;18.90;;;17.60;;
8964;SDS011;4517;49.020;12.066;2023-06-10T13:49:12;20.30;;;18.80;;
8964;SDS011;4517;49.020;12.066;2023-06-10T13:51:37;32.57;;;29.20;;
8964;SDS011;4517;49.020;12.066;2023-06-10T13:54:03;39.07;;;35.30;;
8964;SDS011;4517;49.020;12.066;2023-06-10T13:56:28;53.13;;;48.60;;
8964;SDS011;4517;49.020;12.066;2023-06-10T13:58:54;60.63;;;55.87;;
8964;SDS011;4517;49.020;12.066;2023-06-10T14:01:20;75.87;;;70.80;;
8964;SDS011;4517;49.020;12.066;2023-06-10T14:03:45;76.50;;;71.23;;
8964;SDS011;4517;49.020;12.066;2023-06-10T14:06:11;71.77;;;66.57;;
8964;SDS011;4517;49.020;12.066;2023-06-10T14:08:43;64.70;;;60.00;;
8964;SDS011;4517;49.020;12.066;2023-06-10T14:11:09;65.00;;;60.10;;
8964;SDS011;4517;49.020;12.066;2023-06-10T14:13:34;62.37;;;57.47;;
8964;SDS011;4517;49.020;12.066;2023-06-10T14:16:03;63.80;;;59.00;;
8964;SDS011;4517;49.020;12.066;2023-06-10T14:18:28;69.07;;;64.07;;
8964;SDS011;4517;49.020;12.066;2023-06-10T14:20:54;60.10;;;54.93;;
8964;SDS011;4517;49.020;12.066;2023-06-10T14:23:20;60.63;;;55.50;;
8964;SDS011;4517;49.020;12.066;2023-06-10T14:25:45;69.07;;;63.77;;
8964;SDS011;4517;49.020;12.066;2023-06-10T14:28:11;83.87;;;77.70;;
8964;SDS011;4517;49.020;12.066;2023-06-10T14:30:36;93.60;;;87.10;;
8964;SDS011;4517;49.020;12.066;2023-06-10T14:33:02;108.50;;;100.67;;
8964;SDS011;4517;49.020;12.066;2023-06-10T14:35:27;102.30;;;95.20;;
8964;SDS011;4517;49.020;12.066;2023-06-10T14:37:53;110.60;;;103.00;;
8964;SDS011;4517;49.020;12.066;2023-06-10T14:40:18;125.80;;;117.40;;
8964;SDS011;4517;49.020;12.066;2023-06-10T14:42:46;119.60;;;111.20;;
8964;SDS011;4517;49.020;12.066;2023-06-10T14:45:12;120.67;;;112.47;;
8964;SDS011;4517;49.020;12.066;2023-06-10T14:47:37;137.03;;;128.10;;
8964;SDS011;4517;49.020;12.066;2023-06-10T14:50:03;108.13;;;100.93;;
8964;SDS011;4517;49.020;12.066;2023-06-10T14:52:29;114.03;;;106.43;;
8964;SDS011;4517;49.020;12.066;2023-06-10T14:54:54;87.93;;;81.73;;